Time;durP1;ratioP1;P1;durP2;ratioP2;P2;SDS_P1;SDS_P2;PMS_P1;PMS_P2;Temp;Humidity;BMP_temperature;BMP_pressure;BME280_temperature;BME280_humidity;BME280_pressure;Samples;Min_cycle;Max_cycle;Signal;HPM_P1;HPM_P2
2022/05/06 00:00:13;;;;;;;;;;;10.40;99.90;;;;;;5085405;28;19966;-48
2022/05/06 00:02:38;;;;;;;;;;;10.40;99.90;;;;;;5085233;28;19988;-48
2022/05/06 00:05:08;;;;;;;;;;;10.30;99.90;;;;;;5085217;28;20262;-48
2022/05/06 00:07:33;;;;;;;;;;;10.30;99.90;;;;;;5084971;28;19944;-48
2022/05/06 00:10:01;;;;;;;;;;;10.20;99.90;;;;;;5085113;28;19932;-47
2022/05/06 00:12:26;;;;;;;;;;;10.20;99.90;;;;;;5084098;28;19931;-48
2022/05/06 00:14:53;;;;;;;;;;;10.20;99.90;;;;;;5083947;28;19924;-47
2022/05/06 00:17:18;;;;;;;;;;;10.10;99.90;;;;;;5084305;28;20027;-50
2022/05/06 00:19:44;;;;;;;;;;;10.10;99.90;;;;;;5083560;28;19994;-47
2022/05/06 00:22:10;;;;;;;;;;;10.00;99.90;;;;;;5083391;28;19924;-49
2022/05/06 00:24:36;;;;;;;;;;;10.00;99.90;;;;;;5082885;28;20017;-46
2022/05/06 00:27:02;;;;;;;;;;;10.00;99.90;;;;;;5083358;28;20014;-48
2022/05/06 00:29:29;;;;;;;;;;;10.00;99.90;;;;;;5083572;28;20015;-46
2022/05/06 00:31:54;;;;;;;;;;;9.90;99.90;;;;;;5083042;28;20394;-48
2022/05/06 00:34:20;;;;;;;;;;;9.90;99.90;;;;;;5082525;28;20343;-47
2022/05/06 00:36:45;;;;;;;;;;;9.80;99.90;;;;;;5082685;28;19978;-48
2022/05/06 00:39:11;;;;;;;;;;;9.80;99.90;;;;;;5082714;28;20315;-48
2022/05/06 00:41:36;;;;;;;;;;;9.80;99.90;;;;;;5082603;28;19931;-49
2022/05/06 00:44:06;;;;;;;;;;;9.80;99.90;;;;;;5082475;28;20291;-47
2022/05/06 00:46:32;;;;;;;;;;;9.80;99.90;;;;;;5082552;28;20311;-47
2022/05/06 00:48:58;;;;;;;;;;;9.80;99.90;;;;;;5081943;28;19924;-47
2022/05/06 00:51:23;;;;;;;;;;;9.70;99.90;;;;;;5081640;28;19924;-48
2022/05/06 00:53:50;;;;;;;;;;;9.70;99.90;;;;;;5081485;28;19924;-47
2022/05/06 00:56:17;;;;;;;;;;;9.60;99.90;;;;;;5080976;28;19994;-50
2022/05/06 00:58:44;;;;;;;;;;;9.60;99.90;;;;;;5082003;28;19924;-47
2022/05/06 01:01:10;;;;;;;;;;;9.60;99.90;;;;;;5081852;28;20003;-47
2022/05/06 01:03:35;;;;;;;;;;;9.60;99.90;;;;;;5082033;28;19984;-48
2022/05/06 01:06:03;;;;;;;;;;;9.50;99.90;;;;;;5081404;28;20007;-48
2022/05/06 01:08:29;;;;;;;;;;;9.50;99.90;;;;;;5080927;28;20010;-47
2022/05/06 01:10:54;;;;;;;;;;;9.50;99.90;;;;;;5081455;28;19975;-47
2022/05/06 01:13:21;;;;;;;;;;;9.50;99.90;;;;;;5080693;28;19947;-48
2022/05/06 01:15:47;;;;;;;;;;;9.50;99.90;;;;;;5080875;28;19925;-47
2022/05/06 01:18:13;;;;;;;;;;;9.40;99.90;;;;;;5081012;28;19937;-48
2022/05/06 01:20:42;;;;;;;;;;;9.40;99.90;;;;;;5081011;28;20031;-48
2022/05/06 01:23:07;;;;;;;;;;;9.40;99.90;;;;;;5080537;28;20447;-46
2022/05/06 01:25:33;;;;;;;;;;;9.30;99.90;;;;;;5080364;28;19928;-47
2022/05/06 01:28:03;;;;;;;;;;;9.30;99.90;;;;;;5080410;28;20015;-48
2022/05/06 01:30:42;;;;;;;;;;;9.20;99.90;;;;;;5080043;28;19925;-47
2022/05/06 01:33:12;;;;;;;;;;;9.20;99.90;;;;;;5080116;28;19924;-49
2022/05/06 01:35:40;;;;;;;;;;;9.20;99.90;;;;;;5079248;28;19924;-48
2022/05/06 01:38:07;;;;;;;;;;;9.10;99.90;;;;;;5079839;28;19967;-47
2022/05/06 01:40:40;;;;;;;;;;;9.10;99.90;;;;;;5079793;28;19924;-51
2022/05/06 01:43:07;;;;;;;;;;;9.10;99.90;;;;;;5078847;28;19932;-47
2022/05/06 01:45:34;;;;;;;;;;;9.10;99.90;;;;;;5080623;28;19931;-47
2022/05/06 01:48:00;;;;;;;;;;;9.00;99.90;;;;;;5079166;28;19931;-51
2022/05/06 01:50:27;;;;;;;;;;;9.00;99.90;;;;;;5100780;22;19924;-47
2022/05/06 01:52:54;;;;;;;;;;;9.00;99.90;;;;;;5065250;28;19999;-45
2022/05/06 01:55:19;;;;;;;;;;;9.00;99.90;;;;;;5060603;28;19947;-53
2022/05/06 01:57:45;;;;;;;;;;;9.00;99.90;;;;;;5053828;28;20383;-47
2022/05/06 02:00:12;;;;;;;;;;;8.90;99.90;;;;;;5072433;28;19924;-46
2022/05/06 02:02:37;;;;;;;;;;;8.90;99.90;;;;;;5073924;28;19928;-49
2022/05/06 02:05:19;;;;;;;;;;;8.90;99.90;;;;;;5073848;28;19931;-48
2022/05/06 02:07:48;;;;;;;;;;;8.80;99.90;;;;;;5062195;28;21234;-48
2022/05/06 02:10:14;;;;;;;;;;;8.80;99.90;;;;;;5053776;28;19965;-47
2022/05/06 02:12:40;;;;;;;;;;;8.80;99.90;;;;;;5053892;28;19925;-48
2022/05/06 02:15:06;;;;;;;;;;;8.80;99.90;;;;;;5053698;28;20297;-50
2022/05/06 02:17:31;;;;;;;;;;;8.70;99.90;;;;;;5053814;28;19967;-49
2022/05/06 02:19:57;;;;;;;;;;;8.70;99.90;;;;;;5053887;28;19956;-49
2022/05/06 02:22:23;;;;;;;;;;;8.60;99.90;;;;;;5053674;28;19968;-49
2022/05/06 02:24:49;;;;;;;;;;;8.60;99.90;;;;;;5064067;28;19928;-48
2022/05/06 02:27:14;;;;;;;;;;;8.60;99.90;;;;;;5073723;28;20007;-50
2022/05/06 02:33:12;;;;;;;;;;;8.60;99.90;;;;;;5055476;28;19931;-48
2022/05/06 02:35:09;;;;;;;;;;;8.50;99.90;;;;;;5073217;28;19932;-47
2022/05/06 02:37:35;;;;;;;;;;;8.50;99.90;;;;;;5073509;28;19925;-50
2022/05/06 02:40:01;;;;;;;;;;;8.40;99.90;;;;;;5073495;28;20276;-48
2022/05/06 02:42:26;;;;;;;;;;;8.40;99.90;;;;;;5073406;28;19947;-47
2022/05/06 02:44:52;;;;;;;;;;;8.40;99.90;;;;;;5073293;28;20050;-47
2022/05/06 02:47:17;;;;;;;;;;;8.30;99.90;;;;;;5072420;28;19924;-47
2022/05/06 02:49:43;;;;;;;;;;;8.30;99.90;;;;;;5073007;28;19928;-50
2022/05/06 02:52:09;;;;;;;;;;;8.20;99.90;;;;;;5073048;28;19935;-50
2022/05/06 02:54:34;;;;;;;;;;;8.20;99.90;;;;;;5073267;28;20015;-47
2022/05/06 02:57:00;;;;;;;;;;;8.10;99.90;;;;;;5073285;28;19974;-49
2022/05/06 02:59:26;;;;;;;;;;;8.10;99.90;;;;;;5058504;28;20028;-50
2022/05/06 03:01:51;;;;;;;;;;;8.10;99.90;;;;;;5053051;28;19924;-52
2022/05/06 03:04:17;;;;;;;;;;;8.10;99.90;;;;;;5052938;28;20303;-50
2022/05/06 03:06:44;;;;;;;;;;;8.00;99.90;;;;;;5052926;28;19987;-50
2022/05/06 03:09:10;;;;;;;;;;;8.00;99.90;;;;;;5035308;28;19925;-51
2022/05/06 03:11:35;;;;;;;;;;;8.00;99.90;;;;;;5052924;28;19932;-48
2022/05/06 03:14:01;;;;;;;;;;;8.00;99.90;;;;;;5052905;28;19980;-50
2022/05/06 03:16:27;;;;;;;;;;;8.00;99.90;;;;;;5052841;28;19925;-48
2022/05/06 03:18:52;;;;;;;;;;;7.90;99.90;;;;;;5052827;28;19932;-51
2022/05/06 03:21:18;;;;;;;;;;;7.90;99.90;;;;;;5053155;28;19928;-49
2022/05/06 03:23:46;;;;;;;;;;;7.90;99.90;;;;;;5053043;28;19931;-51
2022/05/06 03:26:12;;;;;;;;;;;7.90;99.90;;;;;;5052896;28;19925;-50
2022/05/06 03:28:37;;;;;;;;;;;7.80;99.90;;;;;;5034972;28;19928;-53
2022/05/06 03:31:03;;;;;;;;;;;7.80;99.90;;;;;;5052838;28;19925;-52
2022/05/06 03:33:30;;;;;;;;;;;7.80;99.90;;;;;;5052757;28;20011;-50
2022/05/06 03:35:56;;;;;;;;;;;7.80;99.90;;;;;;5052859;28;19924;-51
2022/05/06 03:38:21;;;;;;;;;;;7.80;99.90;;;;;;5034938;28;19948;-48
2022/05/06 03:40:47;;;;;;;;;;;7.80;99.90;;;;;;5052869;28;19925;-49
2022/05/06 03:43:12;;;;;;;;;;;7.80;99.90;;;;;;5052625;28;19928;-48
2022/05/06 03:45:39;;;;;;;;;;;7.80;99.90;;;;;;5052768;28;19932;-48
2022/05/06 03:48:05;;;;;;;;;;;7.80;99.90;;;;;;5052661;28;19925;-51
2022/05/06 03:53:14;;;;;;;;;;;7.80;99.90;;;;;;5052768;28;19932;-51
2022/05/06 03:55:41;;;;;;;;;;;7.90;99.90;;;;;;5052573;28;19925;-52
2022/05/06 03:58:06;;;;;;;;;;;7.80;99.90;;;;;;5051865;28;19925;-47
2022/05/06 04:00:32;;;;;;;;;;;7.80;99.90;;;;;;5056224;28;19924;-49
2022/05/06 04:02:58;;;;;;;;;;;7.70;99.90;;;;;;5056021;28;20053;-48
2022/05/06 04:05:23;;;;;;;;;;;7.70;99.90;;;;;;5056193;28;19924;-48
2022/05/06 04:07:49;;;;;;;;;;;7.70;99.90;;;;;;5056206;28;19931;-46
2022/05/06 04:10:14;;;;;;;;;;;7.70;99.90;;;;;;5056003;28;19925;-50
2022/05/06 04:12:40;;;;;;;;;;;7.80;99.90;;;;;;5055988;28;19931;-48
2022/05/06 04:15:06;;;;;;;;;;;7.80;99.90;;;;;;5055849;28;19925;-48
2022/05/06 04:17:32;;;;;;;;;;;7.90;99.90;;;;;;5055773;28;19924;-47
2022/05/06 04:25:26;;;;;;;;;;;8.00;99.90;;;;;;5055872;28;20382;-51
2022/05/06 04:27:51;;;;;;;;;;;8.00;99.90;;;;;;5056151;28;19925;-51
2022/05/06 04:30:16;;;;;;;;;;;8.10;99.90;;;;;;5055805;28;19932;-46
2022/05/06 04:32:42;;;;;;;;;;;8.10;99.90;;;;;;5055750;28;19925;-46
2022/05/06 04:35:08;;;;;;;;;;;8.20;99.90;;;;;;5055588;28;19979;-51
2022/05/06 04:37:33;;;;;;;;;;;8.30;99.90;;;;;;5055574;28;20390;-48
2022/05/06 04:39:59;;;;;;;;;;;8.30;99.90;;;;;;5055575;28;20294;-48
2022/05/06 04:42:25;;;;;;;;;;;8.40;99.90;;;;;;5055425;28;19928;-51
2022/05/06 04:44:50;;;;;;;;;;;8.90;99.90;;;;;;5055729;28;19925;-50
2022/05/06 04:47:16;;;;;;;;;;;9.60;99.90;;;;;;5055418;28;19929;-51
2022/05/06 04:49:41;;;;;;;;;;;10.30;99.90;;;;;;5055406;28;19929;-51
2022/05/06 04:52:07;;;;;;;;;;;10.90;99.90;;;;;;5055055;28;19925;-48
2022/05/06 04:54:32;;;;;;;;;;;11.50;99.90;;;;;;5055192;28;19968;-50
2022/05/06 04:56:58;;;;;;;;;;;;;;;;;;5055711;28;20419;-52
2022/05/06 04:59:23;;;;;;;;;;;12.30;99.90;;;;;;5055359;28;19925;-49
2022/05/06 05:01:49;;;;;;;;;;;12.50;99.90;;;;;;5037507;28;20033;-50
2022/05/06 05:04:14;;;;;;;;;;;12.60;99.90;;;;;;5037466;28;19925;-53
2022/05/06 05:06:40;;;;;;;;;;;12.50;99.90;;;;;;5055122;28;20321;-49
2022/05/06 05:09:06;;;;;;;;;;;12.40;99.90;;;;;;5055156;28;19978;-49
2022/05/06 05:11:34;;;;;;;;;;;12.40;99.90;;;;;;5054011;28;20378;-49
2022/05/06 05:14:01;;;;;;;;;;;12.50;99.90;;;;;;5055170;28;19978;-51
2022/05/06 05:16:27;;;;;;;;;;;12.30;99.90;;;;;;5054887;28;19925;-50
2022/05/06 05:18:53;;;;;;;;;;;12.50;99.90;;;;;;5054885;28;19956;-49
2022/05/06 05:21:18;;;;;;;;;;;13.20;99.90;;;;;;5054947;28;19951;-48
2022/05/06 05:23:45;;;;;;;;;;;13.70;99.90;;;;;;5053458;28;19944;-48
2022/05/06 05:26:10;;;;;;;;;;;14.00;99.90;;;;;;5054748;28;20024;-52
2022/05/06 05:28:36;;;;;;;;;;;14.70;99.90;;;;;;5054776;28;19979;-49
2022/05/06 05:31:02;;;;;;;;;;;15.20;99.90;;;;;;5054587;28;19931;-49
2022/05/06 05:33:28;;;;;;;;;;;15.60;99.90;;;;;;5036975;28;20059;-48
2022/05/06 05:35:54;;;;;;;;;;;15.90;99.90;;;;;;5054412;28;19972;-49
2022/05/06 05:38:19;;;;;;;;;;;16.50;99.90;;;;;;5054288;28;19932;-53
2022/05/06 05:40:44;;;;;;;;;;;16.80;99.90;;;;;;5054397;28;20325;-49
2022/05/06 05:48:19;;;;;;;;;;;16.90;99.90;;;;;;5054599;28;20382;-49
2022/05/06 05:48:39;;;;;;;;;;;16.70;99.90;;;;;;5054416;28;20478;-50
2022/05/06 05:51:05;;;;;;;;;;;17.00;99.90;;;;;;5053808;28;19968;-48
2022/05/06 05:53:32;;;;;;;;;;;17.30;99.90;;;;;;5054349;28;20287;-50
2022/05/06 05:55:57;;;;;;;;;;;17.80;99.90;;;;;;5054200;28;19932;-50
2022/05/06 05:58:23;;;;;;;;;;;18.00;99.90;;;;;;5054033;28;19925;-51
2022/05/06 06:00:49;;;;;;;;;;;18.50;99.90;;;;;;5036451;28;19932;-48
2022/05/06 06:03:14;;;;;;;;;;;18.90;99.90;;;;;;5053918;28;19976;-47
2022/05/06 06:05:40;;;;;;;;;;;19.20;99.90;;;;;;5053850;28;20012;-48
2022/05/06 06:08:05;;;;;;;;;;;19.50;99.90;;;;;;5053964;28;19929;-49
2022/05/06 06:10:30;;;;;;;;;;;19.70;99.90;;;;;;5054018;28;19924;-49
2022/05/06 06:12:57;;;;;;;;;;;19.80;99.90;;;;;;5053815;28;19928;-46
2022/05/06 06:15:22;;;;;;;;;;;20.00;99.90;;;;;;5053937;28;19978;-49
2022/05/06 06:17:48;;;;;;;;;;;20.30;99.90;;;;;;5053637;28;19929;-48
2022/05/06 06:20:13;;;;;;;;;;;20.50;99.90;;;;;;5053456;28;19925;-48
2022/05/06 06:22:39;;;;;;;;;;;20.60;99.90;;;;;;5053433;28;19925;-48
2022/05/06 06:25:04;;;;;;;;;;;20.70;99.90;;;;;;5053725;28;19978;-49
2022/05/06 06:27:31;;;;;;;;;;;20.90;99.90;;;;;;5053603;28;19932;-50
2022/05/06 06:29:57;;;;;;;;;;;21.10;99.90;;;;;;5053639;28;19925;-52
2022/05/06 06:32:22;;;;;;;;;;;21.20;99.90;;;;;;5053525;28;19924;-49
2022/05/06 06:34:48;;;;;;;;;;;21.30;99.90;;;;;;5035488;28;19932;-47
2022/05/06 06:37:14;;;;;;;;;;;21.50;98.90;;;;;;5035695;28;19925;-48
2022/05/06 06:39:39;;;;;;;;;;;21.50;97.70;;;;;;5053258;28;19970;-48
2022/05/06 06:42:05;;;;;;;;;;;21.60;97.90;;;;;;5053462;28;19939;-48
2022/05/06 06:44:31;;;;;;;;;;;21.70;97.40;;;;;;5053313;28;19970;-48
2022/05/06 06:46:56;;;;;;;;;;;21.70;97.00;;;;;;5053329;28;19971;-48
2022/05/06 06:49:21;;;;;;;;;;;21.70;96.70;;;;;;5053541;28;19925;-49
2022/05/06 06:51:47;;;;;;;;;;;21.70;95.30;;;;;;5052945;28;19963;-52
2022/05/06 06:54:12;;;;;;;;;;;21.70;95.70;;;;;;5053092;28;20409;-47
2022/05/06 06:56:38;;;;;;;;;;;21.70;94.70;;;;;;5053171;28;19932;-48
2022/05/06 06:59:05;;;;;;;;;;;21.60;94.20;;;;;;5053245;28;19932;-47
2022/05/06 07:01:32;;;;;;;;;;;21.70;94.30;;;;;;5053120;28;19978;-50
2022/05/06 07:03:58;;;;;;;;;;;21.70;94.20;;;;;;5053012;28;20441;-49
2022/05/06 07:11:56;;;;;;;;;;;21.30;94.70;;;;;;5053060;28;20008;-49
2022/05/06 07:14:23;;;;;;;;;;;21.00;94.30;;;;;;5052856;28;19925;-47
2022/05/06 07:16:49;;;;;;;;;;;21.10;95.40;;;;;;5053204;28;20264;-48
2022/05/06 07:19:15;;;;;;;;;;;;;;;;;;5052868;28;19925;-48
2022/05/06 07:21:40;;;;;;;;;;;20.20;97.10;;;;;;5053074;28;19931;-48
2022/05/06 07:24:06;;;;;;;;;;;19.40;99.60;;;;;;5035063;28;20402;-49
2022/05/06 07:26:32;;;;;;;;;;;19.10;99.90;;;;;;5052911;28;20007;-51
2022/05/06 07:28:57;;;;;;;;;;;18.40;99.90;;;;;;5052696;28;19924;-49
2022/05/06 07:31:23;;;;;;;;;;;;;;;;;;5052745;28;20336;-48
2022/05/06 07:33:49;;;;;;;;;;;17.80;99.90;;;;;;5054516;28;19925;-48
2022/05/06 07:36:15;;;;;;;;;;;17.70;99.90;;;;;;5038877;28;20010;-48
2022/05/06 07:38:41;;;;;;;;;;;17.80;99.90;;;;;;5056687;28;20472;-48
2022/05/06 07:41:06;;;;;;;;;;;17.40;99.90;;;;;;5056600;28;19925;-48
2022/05/06 07:43:31;;;;;;;;;;;17.50;99.90;;;;;;5056516;28;19925;-47
2022/05/06 07:45:57;;;;;;;;;;;17.50;99.90;;;;;;5038989;28;19939;-48
2022/05/06 07:48:22;;;;;;;;;;;17.40;99.90;;;;;;5056554;28;20372;-48
2022/05/06 07:50:48;;;;;;;;;;;17.60;99.90;;;;;;5056300;28;19995;-50
2022/05/06 07:53:15;;;;;;;;;;;17.50;99.90;;;;;;5056388;28;19925;-48
2022/05/06 07:55:41;;;;;;;;;;;17.20;99.90;;;;;;5056304;28;20379;-47
2022/05/06 07:58:06;;;;;;;;;;;17.00;99.90;;;;;;5056156;28;19971;-48
2022/05/06 08:00:32;;;;;;;;;;;17.00;99.90;;;;;;5056545;28;19925;-47
2022/05/06 08:05:44;;;;;;;;;;;17.20;99.90;;;;;;5056289;28;19933;-52
2022/05/06 08:08:09;;;;;;;;;;;17.10;99.90;;;;;;5056197;28;19925;-47
2022/05/06 08:10:35;;;;;;;;;;;17.00;99.90;;;;;;5056088;28;19994;-48
2022/05/06 08:13:01;;;;;;;;;;;17.00;99.90;;;;;;5056363;28;20332;-52
2022/05/06 08:15:27;;;;;;;;;;;16.90;99.90;;;;;;5055867;28;19931;-49
2022/05/06 08:17:53;;;;;;;;;;;17.30;99.90;;;;;;5054877;28;20282;-50
2022/05/06 08:20:18;;;;;;;;;;;17.40;99.90;;;;;;5055908;28;20058;-49
2022/05/06 08:22:44;;;;;;;;;;;17.60;99.90;;;;;;5056041;28;19924;-48
2022/05/06 08:25:09;;;;;;;;;;;17.60;99.90;;;;;;5055825;28;19960;-49
2022/05/06 08:27:36;;;;;;;;;;;17.60;99.90;;;;;;5037889;28;20408;-48
2022/05/06 08:30:01;;;;;;;;;;;17.70;99.90;;;;;;5055671;28;20387;-47
2022/05/06 08:32:26;;;;;;;;;;;17.70;99.90;;;;;;5055775;28;19971;-52
2022/05/06 08:34:52;;;;;;;;;;;17.70;99.90;;;;;;5055641;28;20326;-47
2022/05/06 08:37:21;;;;;;;;;;;17.70;99.90;;;;;;5055661;28;20011;-50
2022/05/06 08:39:47;;;;;;;;;;;17.80;99.90;;;;;;5055588;28;19925;-48
2022/05/06 08:42:15;;;;;;;;;;;17.90;99.90;;;;;;5055698;28;20042;-52
2022/05/06 08:52:56;;;;;;;;;;;17.90;99.90;;;;;;5055333;28;20322;-48
2022/05/06 08:55:22;;;;;;;;;;;18.20;99.90;;;;;;5055198;28;20368;-50
2022/05/06 08:57:48;;;;;;;;;;;18.20;99.90;;;;;;5055248;28;19959;-47
2022/05/06 09:00:14;;;;;;;;;;;18.10;99.90;;;;;;5055279;28;20335;-48
2022/05/06 09:02:39;;;;;;;;;;;17.90;99.90;;;;;;5055002;28;19925;-50
2022/05/06 09:05:18;;;;;;;;;;;17.80;99.90;;;;;;5055232;28;19928;-47
2022/05/06 09:08:04;;;;;;;;;;;18.10;99.90;;;;;;5055709;28;19932;-49
2022/05/06 09:10:29;;;;;;;;;;;18.00;99.90;;;;;;5055103;28;20379;-48
2022/05/06 09:12:56;;;;;;;;;;;18.00;99.90;;;;;;5053760;28;19979;-49
2022/05/06 09:18:09;;;;;;;;;;;18.20;99.90;;;;;;5054980;28;19932;-47
2022/05/06 09:20:35;;;;;;;;;;;18.40;99.90;;;;;;5054776;28;20015;-47
2022/05/06 09:23:24;;;;;;;;;;;18.50;99.90;;;;;;5054780;28;19986;-48
2022/05/06 09:25:50;;;;;;;;;;;18.70;99.90;;;;;;5054756;28;20350;-53
2022/05/06 09:28:25;;;;;;;;;;;18.90;99.90;;;;;;5054572;28;19932;-47
2022/05/06 09:31:04;;;;;;;;;;;19.10;99.90;;;;;;5036942;28;19925;-50
2022/05/06 09:33:31;;;;;;;;;;;19.00;99.90;;;;;;5054699;28;20352;-50
2022/05/06 09:35:57;;;;;;;;;;;19.10;99.90;;;;;;5054404;28;20363;-50
2022/05/06 09:38:24;;;;;;;;;;;19.20;99.90;;;;;;5019993;28;20375;-48
2022/05/06 09:40:50;;;;;;;;;;;19.40;99.90;;;;;;5020408;28;19932;-52
2022/05/06 09:43:17;;;;;;;;;;;19.40;99.90;;;;;;5054364;28;19925;-49
2022/05/06 09:45:44;;;;;;;;;;;19.40;99.90;;;;;;5054396;28;19925;-47
2022/05/06 09:48:10;;;;;;;;;;;19.60;99.90;;;;;;5054290;28;20023;-47
2022/05/06 09:50:38;;;;;;;;;;;19.50;99.90;;;;;;5053965;28;19931;-48
2022/05/06 09:53:04;;;;;;;;;;;19.70;99.90;;;;;;5054348;28;19925;-48
2022/05/06 09:55:30;;;;;;;;;;;19.70;99.90;;;;;;5036320;28;19990;-48
2022/05/06 09:57:56;;;;;;;;;;;19.70;99.90;;;;;;5053767;28;20377;-49
2022/05/06 10:00:22;;;;;;;;;;;19.80;99.90;;;;;;5054172;28;19925;-48
2022/05/06 10:02:47;;;;;;;;;;;19.80;99.90;;;;;;5053927;28;19928;-49
2022/05/06 10:05:13;;;;;;;;;;;20.10;99.90;;;;;;5054129;28;19976;-48
2022/05/06 10:07:40;;;;;;;;;;;20.10;99.90;;;;;;5053860;28;19925;-49
2022/05/06 10:10:07;;;;;;;;;;;20.10;99.90;;;;;;5054091;28;19948;-52
2022/05/06 10:12:41;;;;;;;;;;;20.30;99.90;;;;;;5053933;28;19968;-50
2022/05/06 10:15:08;;;;;;;;;;;20.40;99.90;;;;;;5053942;28;20381;-50
2022/05/06 10:17:47;;;;;;;;;;;20.20;99.90;;;;;;5053787;28;19932;-49
2022/05/06 10:20:32;;;;;;;;;;;20.20;99.90;;;;;;5053760;28;20409;-48
2022/05/06 10:22:59;;;;;;;;;;;20.20;99.90;;;;;;5053602;28;20314;-49
2022/05/06 10:25:42;;;;;;;;;;;20.20;99.90;;;;;;5053675;28;19925;-49
2022/05/06 10:34:07;;;;;;;;;;;20.40;99.90;;;;;;5053643;28;19954;-48
2022/05/06 10:36:41;;;;;;;;;;;20.40;99.90;;;;;;5053235;28;20015;-49
2022/05/06 10:39:21;;;;;;;;;;;20.60;99.90;;;;;;5053372;28;19924;-47
2022/05/06 10:42:02;;;;;;;;;;;20.60;99.90;;;;;;5053261;28;20382;-48
2022/05/06 10:44:30;;;;;;;;;;;20.70;99.90;;;;;;5053313;28;19929;-50
2022/05/06 10:46:57;;;;;;;;;;;20.60;99.90;;;;;;5053339;28;19957;-49
2022/05/06 10:49:34;;;;;;;;;;;20.50;99.90;;;;;;5053571;28;19925;-47
2022/05/06 10:52:15;;;;;;;;;;;20.80;99.90;;;;;;5052935;28;19978;-52
2022/05/06 10:54:50;;;;;;;;;;;20.70;99.90;;;;;;5053260;28;19921;-51
2022/05/06 10:57:17;;;;;;;;;;;21.00;99.90;;;;;;5053092;28;19928;-49
2022/05/06 10:59:49;;;;;;;;;;;21.10;99.90;;;;;;5035220;28;19925;-52
2022/05/06 11:02:14;;;;;;;;;;;21.00;99.90;;;;;;5053185;28;19925;-49
2022/05/06 11:04:43;;;;;;;;;;;21.00;99.90;;;;;;5053128;28;19971;-48
2022/05/06 11:07:12;;;;;;;;;;;21.20;99.90;;;;;;5053199;28;19928;-49
2022/05/06 11:09:37;;;;;;;;;;;21.10;99.90;;;;;;5038144;28;19983;-49
2022/05/06 11:12:03;;;;;;;;;;;21.10;99.90;;;;;;5057170;28;20394;-49
2022/05/06 11:14:29;;;;;;;;;;;21.20;99.90;;;;;;5057323;28;19925;-52
2022/05/06 11:17:13;;;;;;;;;;;21.30;99.90;;;;;;5057165;28;20385;-49
2022/05/06 11:19:38;;;;;;;;;;;21.30;99.90;;;;;;5057186;28;19929;-50
2022/05/06 11:22:07;;;;;;;;;;;21.40;99.90;;;;;;5057556;28;19978;-48
2022/05/06 11:24:32;;;;;;;;;;;21.50;99.90;;;;;;5056945;28;19924;-49
2022/05/06 11:27:17;;;;;;;;;;;21.50;99.90;;;;;;5057050;28;19931;-51
2022/05/06 11:29:49;;;;;;;;;;;21.50;99.90;;;;;;5056916;28;19925;-48
2022/05/06 11:32:15;;;;;;;;;;;21.50;99.80;;;;;;5056894;28;19928;-48
2022/05/06 11:35:10;;;;;;;;;;;21.30;99.90;;;;;;5056632;28;19975;-47
2022/05/06 11:37:41;;;;;;;;;;;21.40;99.90;;;;;;5039348;28;20298;-48
2022/05/06 11:40:32;;;;;;;;;;;21.50;99.90;;;;;;5056783;28;20276;-49
2022/05/06 11:43:02;;;;;;;;;;;21.70;99.90;;;;;;5056564;28;19964;-49
2022/05/06 11:48:13;;;;;;;;;;;21.70;97.60;;;;;;5056697;28;19982;-49
2022/05/06 11:50:40;;;;;;;;;;;21.70;97.20;;;;;;5056057;28;20365;-48
2022/05/06 11:53:10;;;;;;;;;;;21.80;98.40;;;;;;5055350;28;19925;-48
2022/05/06 11:55:37;;;;;;;;;;;22.00;99.50;;;;;;5054972;28;19964;-50
2022/05/06 11:58:05;;;;;;;;;;;22.00;97.60;;;;;;5055280;28;19925;-49
2022/05/06 12:00:31;;;;;;;;;;;22.00;99.00;;;;;;5055196;28;20337;-50
2022/05/06 12:03:01;;;;;;;;;;;22.00;96.60;;;;;;5054975;28;19929;-49
2022/05/06 12:05:26;;;;;;;;;;;22.00;98.10;;;;;;5055453;28;19925;-50
2022/05/06 12:07:52;;;;;;;;;;;22.10;97.70;;;;;;5054878;28;19924;-50
2022/05/06 12:10:37;;;;;;;;;;;22.00;96.30;;;;;;5054718;28;20130;-49
2022/05/06 12:13:06;;;;;;;;;;;21.90;94.30;;;;;;5054979;28;19925;-49
2022/05/06 12:15:32;;;;;;;;;;;21.80;90.40;;;;;;5054823;28;19925;-54
2022/05/06 12:18:24;;;;;;;;;;;21.90;92.80;;;;;;5054806;28;19932;-48
2022/05/06 12:20:49;;;;;;;;;;;22.00;92.60;;;;;;5045244;28;20294;-50
2022/05/06 12:23:15;;;;;;;;;;;22.10;91.50;;;;;;5054829;28;19932;-52
2022/05/06 12:25:41;;;;;;;;;;;22.20;91.00;;;;;;5054694;28;19925;-50
2022/05/06 12:28:13;;;;;;;;;;;22.30;89.00;;;;;;5054670;28;19924;-52
2022/05/06 12:30:38;;;;;;;;;;;22.30;88.30;;;;;;5054489;28;19925;-48
2022/05/06 12:33:12;;;;;;;;;;;22.30;87.10;;;;;;5054469;28;19928;-49
2022/05/06 12:35:56;;;;;;;;;;;22.30;90.00;;;;;;5054577;28;19928;-51
2022/05/06 12:38:25;;;;;;;;;;;22.40;83.00;;;;;;5054425;28;19932;-49
2022/05/06 12:40:52;;;;;;;;;;;22.50;85.80;;;;;;5054421;28;19925;-47
2022/05/06 12:43:24;;;;;;;;;;;22.40;88.90;;;;;;5036576;28;20011;-49
2022/05/06 12:45:51;;;;;;;;;;;22.60;88.40;;;;;;5054213;28;19964;-50
2022/05/06 12:51:02;;;;;;;;;;;22.50;83.60;;;;;;4994415;28;1704714;-49
2022/05/06 12:53:28;;;;;;;;;;;22.40;82.50;;;;;;5055417;28;19932;-49
2022/05/06 12:55:54;;;;;;;;;;;22.60;82.10;;;;;;5055718;28;19925;-48
2022/05/06 12:58:23;;;;;;;;;;;22.50;78.80;;;;;;5055007;28;20032;-50
2022/05/06 13:00:49;;;;;;;;;;;22.30;75.20;;;;;;5037329;28;19955;-49
2022/05/06 13:03:15;;;;;;;;;;;22.40;77.40;;;;;;5055192;28;19925;-49
2022/05/06 13:05:43;;;;;;;;;;;22.40;71.20;;;;;;5055057;28;20302;-46
2022/05/06 13:08:09;;;;;;;;;;;22.40;69.70;;;;;;5037217;28;19932;-47
2022/05/06 13:10:35;;;;;;;;;;;22.50;75.60;;;;;;5054882;28;19929;-50
2022/05/06 13:13:02;;;;;;;;;;;22.50;74.20;;;;;;5054745;28;20024;-48
2022/05/06 13:15:28;;;;;;;;;;;22.30;72.00;;;;;;5054918;28;19929;-48
2022/05/06 13:17:53;;;;;;;;;;;22.50;74.90;;;;;;5054921;28;19925;-49
2022/05/06 13:20:20;;;;;;;;;;;22.50;73.90;;;;;;5054822;28;19980;-49
2022/05/06 13:22:45;;;;;;;;;;;22.60;74.40;;;;;;5054662;28;19932;-48
2022/05/06 13:25:10;;;;;;;;;;;22.60;72.60;;;;;;5054474;28;19925;-50
2022/05/06 13:27:36;;;;;;;;;;;22.70;73.20;;;;;;5054753;28;19991;-49
2022/05/06 13:30:02;;;;;;;;;;;22.90;74.40;;;;;;5054698;28;19948;-53
2022/05/06 13:32:28;;;;;;;;;;;22.70;73.50;;;;;;5053914;28;20360;-48
2022/05/06 13:34:54;;;;;;;;;;;22.70;75.30;;;;;;5054454;28;19931;-49
2022/05/06 13:37:19;;;;;;;;;;;22.80;76.00;;;;;;5054403;28;19928;-49
2022/05/06 13:39:44;;;;;;;;;;;22.70;75.70;;;;;;5054232;28;19932;-51
2022/05/06 13:42:10;;;;;;;;;;;22.70;77.60;;;;;;5054249;28;20019;-48
2022/05/06 13:44:35;;;;;;;;;;;22.80;77.10;;;;;;5036397;28;19932;-52
2022/05/06 13:47:01;;;;;;;;;;;22.50;76.10;;;;;;5054464;28;20379;-48
2022/05/06 13:49:26;;;;;;;;;;;22.50;78.00;;;;;;5036513;28;19924;-50
2022/05/06 13:51:52;;;;;;;;;;;22.70;76.40;;;;;;5053857;28;19931;-52
2022/05/06 13:54:17;;;;;;;;;;;22.80;75.80;;;;;;5053984;28;19925;-49
2022/05/06 13:59:27;;;;;;;;;;;22.80;76.30;;;;;;5054189;28;20103;-51
2022/05/06 14:01:52;;;;;;;;;;;22.90;77.50;;;;;;5054012;28;20023;-51
2022/05/06 14:04:18;;;;;;;;;;;22.90;77.60;;;;;;5053938;28;19925;-51
2022/05/06 14:06:43;;;;;;;;;;;22.90;75.70;;;;;;5053832;28;19978;-51
2022/05/06 14:09:09;;;;;;;;;;;23.20;77.60;;;;;;5036054;28;20432;-51
2022/05/06 14:11:34;;;;;;;;;;;23.10;75.60;;;;;;5053744;28;19924;-51
2022/05/06 14:14:00;;;;;;;;;;;23.40;77.10;;;;;;5053858;28;19976;-49
2022/05/06 14:16:26;;;;;;;;;;;23.50;77.10;;;;;;5053900;28;19948;-50
2022/05/06 14:18:52;;;;;;;;;;;23.10;76.70;;;;;;5053694;28;19995;-50
2022/05/06 14:21:18;;;;;;;;;;;23.40;76.10;;;;;;5053708;28;19925;-49
2022/05/06 14:23:43;;;;;;;;;;;23.50;77.10;;;;;;5053912;28;20016;-50
2022/05/06 14:26:09;;;;;;;;;;;23.60;74.20;;;;;;5053706;28;19932;-49
2022/05/06 14:28:34;;;;;;;;;;;23.30;72.80;;;;;;5053757;28;20351;-49
2022/05/06 14:31:00;;;;;;;;;;;23.20;75.70;;;;;;5052362;28;19971;-49
2022/05/06 14:33:25;;;;;;;;;;;23.40;76.20;;;;;;5053415;28;19924;-50
2022/05/06 14:35:50;;;;;;;;;;;23.40;75.30;;;;;;5053165;28;20390;-48
2022/05/06 14:38:18;;;;;;;;;;;22.90;74.60;;;;;;5053203;28;19932;-50
2022/05/06 14:40:45;;;;;;;;;;;22.60;75.30;;;;;;5053688;28;19924;-49
2022/05/06 14:43:11;;;;;;;;;;;22.60;76.30;;;;;;5053495;28;19964;-51
2022/05/06 14:45:37;;;;;;;;;;;22.80;77.10;;;;;;5053336;28;19947;-49
2022/05/06 14:48:03;;;;;;;;;;;23.10;76.40;;;;;;5053721;28;20315;-52
2022/05/06 14:50:28;;;;;;;;;;;23.30;78.30;;;;;;5052908;28;19925;-50
2022/05/06 14:52:53;;;;;;;;;;;23.20;77.80;;;;;;5053061;28;20397;-50
2022/05/06 14:55:19;;;;;;;;;;;23.20;75.60;;;;;;5053274;28;19964;-49
2022/05/06 14:57:44;;;;;;;;;;;23.20;76.60;;;;;;5035431;28;19939;-47
2022/05/06 15:00:11;;;;;;;;;;;23.20;74.10;;;;;;5053246;28;19925;-49
2022/05/06 15:02:37;;;;;;;;;;;23.30;74.40;;;;;;5053068;28;19925;-51
2022/05/06 15:05:03;;;;;;;;;;;23.50;74.40;;;;;;5053145;28;19925;-51
2022/05/06 15:07:28;;;;;;;;;;;23.50;76.00;;;;;;5052884;28;19924;-50